createdAt,value
2022-12-03T00:02:12.852Z,1.84
2022-12-03T00:04:39.466Z,1.83
2022-12-03T00:07:06.006Z,1.85
2022-12-03T00:09:32.737Z,1.85
2022-12-03T00:11:59.340Z,1.88
2022-12-03T00:14:25.911Z,1.89
2022-12-03T00:16:52.396Z,1.87
2022-12-03T00:19:18.904Z,1.88
2022-12-03T00:21:45.374Z,1.88
2022-12-03T00:24:11.879Z,1.90
2022-12-03T00:26:38.394Z,1.91
2022-12-03T00:29:04.993Z,1.91
2022-12-03T00:31:31.580Z,1.91
2022-12-03T00:33:58.268Z,1.89
2022-12-03T00:36:24.900Z,1.91
2022-12-03T00:38:53.888Z,1.90
2022-12-03T00:41:20.691Z,1.92
2022-12-03T00:43:47.373Z,1.92
2022-12-03T00:46:16.909Z,1.91
2022-12-03T00:48:47.496Z,1.91
2022-12-03T00:51:13.986Z,1.93
2022-12-03T00:53:40.940Z,1.93
2022-12-03T00:56:07.851Z,1.93
2022-12-03T00:58:34.409Z,1.92
2022-12-03T01:01:00.931Z,1.94
2022-12-03T01:03:27.697Z,1.94
2022-12-03T01:05:54.361Z,1.95
2022-12-03T01:08:20.926Z,1.92
2022-12-03T01:10:47.567Z,1.90
2022-12-03T01:13:14.075Z,1.88
2022-12-03T01:15:40.708Z,1.89
2022-12-03T01:18:07.568Z,1.86
2022-12-03T01:20:36.236Z,1.81
2022-12-03T01:23:02.869Z,1.78
2022-12-03T01:25:29.451Z,1.74
2022-12-03T01:27:56.032Z,1.71
2022-12-03T01:30:22.535Z,1.71
2022-12-03T01:32:49.043Z,1.71
2022-12-03T01:35:15.650Z,1.71
2022-12-03T01:37:42.211Z,1.70
2022-12-03T01:40:13.464Z,1.71
2022-12-03T01:42:41.298Z,1.73
2022-12-03T01:45:14.642Z,1.71
2022-12-03T01:47:41.362Z,1.66
2022-12-03T01:50:33.093Z,1.63
2022-12-03T01:53:01.643Z,1.62
2022-12-03T01:55:28.554Z,1.63
2022-12-03T01:57:58.895Z,1.63
2022-12-03T02:00:27.598Z,1.65
2022-12-03T02:02:59.393Z,1.65
2022-12-03T02:05:28.532Z,1.64
2022-12-03T02:07:55.662Z,1.63
2022-12-03T02:10:38.248Z,1.62
2022-12-03T02:13:10.282Z,1.60
2022-12-03T02:15:39.284Z,1.58
2022-12-03T02:18:07.971Z,1.55
2022-12-03T02:20:44.246Z,1.56
2022-12-03T02:23:17.198Z,1.56
2022-12-03T02:25:43.805Z,1.56
2022-12-03T02:28:10.824Z,1.58
2022-12-03T02:30:37.682Z,1.58
2022-12-03T02:33:04.622Z,1.59
2022-12-03T02:35:33.881Z,1.58
2022-12-03T02:38:10.878Z,1.59
2022-12-03T02:40:38.346Z,1.61
2022-12-03T02:43:05.853Z,1.63
2022-12-03T02:45:36.438Z,1.65
2022-12-03T02:48:10.334Z,1.62
2022-12-03T02:50:41.434Z,1.61
2022-12-03T02:53:13.895Z,1.58
2022-12-03T02:55:41.392Z,1.57
2022-12-03T02:58:08.882Z,1.58
2022-12-03T03:00:36.546Z,1.58
2022-12-03T03:03:05.089Z,1.56
2022-12-03T03:05:33.484Z,1.52
2022-12-03T03:08:00.757Z,1.49
2022-12-03T03:10:29.171Z,1.48
2022-12-03T03:12:56.183Z,1.45
2022-12-03T03:15:23.742Z,1.44
2022-12-03T03:17:50.929Z,1.44
2022-12-03T03:20:18.504Z,1.38
2022-12-03T03:22:45.030Z,1.36
2022-12-03T03:25:18.622Z,1.35
2022-12-03T03:27:45.843Z,1.37
2022-12-03T03:30:13.894Z,1.37
2022-12-03T03:32:42.555Z,1.36
2022-12-03T03:35:10.737Z,1.36
2022-12-03T03:37:38.176Z,1.35
2022-12-03T03:40:05.311Z,1.34
2022-12-03T03:42:31.853Z,1.37
2022-12-03T03:44:58.469Z,1.39
2022-12-03T03:47:25.752Z,1.41
2022-12-03T03:49:53.017Z,1.43
2022-12-03T03:52:20.356Z,1.45
2022-12-03T03:54:47.336Z,1.48
2022-12-03T03:57:14.354Z,1.49
2022-12-03T03:59:41.203Z,1.48
2022-12-03T04:02:17.663Z,1.45
2022-12-03T04:04:44.552Z,1.46
2022-12-03T04:07:11.063Z,1.47
2022-12-03T04:09:37.630Z,1.47
2022-12-03T04:12:23.082Z,1.46
2022-12-03T04:14:49.646Z,1.47
2022-12-03T04:17:16.193Z,1.46
2022-12-03T04:19:42.945Z,1.43
2022-12-03T04:22:28.187Z,1.39
2022-12-03T04:25:17.302Z,1.34
2022-12-03T04:28:03.653Z,1.34
2022-12-03T04:30:30.569Z,1.33
2022-12-03T04:33:15.603Z,1.35
2022-12-03T04:35:45.106Z,1.34
2022-12-03T04:38:13.639Z,1.30
2022-12-03T04:40:59.535Z,1.29
2022-12-03T04:43:26.993Z,1.25
2022-12-03T04:45:54.854Z,1.21
2022-12-03T04:48:21.626Z,1.21
2022-12-03T04:50:48.438Z,1.22
2022-12-03T04:53:14.941Z,1.20
2022-12-03T04:55:41.572Z,1.19
2022-12-03T04:58:09.472Z,1.18
2022-12-03T05:00:36.061Z,1.16
2022-12-03T05:03:02.675Z,1.14
2022-12-03T05:05:29.244Z,1.12
2022-12-03T05:07:55.800Z,1.13
2022-12-03T05:10:22.362Z,1.14
2022-12-03T05:12:48.835Z,1.16
2022-12-03T05:15:15.447Z,1.14
2022-12-03T05:17:42.038Z,1.12
2022-12-03T05:20:28.165Z,1.11
2022-12-03T05:22:54.774Z,1.10
2022-12-03T05:25:21.320Z,1.08
2022-12-03T05:27:47.769Z,1.08
2022-12-03T05:30:14.955Z,1.08
2022-12-03T05:32:41.540Z,1.06
2022-12-03T05:35:09.510Z,1.05
2022-12-03T05:37:36.107Z,1.06
2022-12-03T05:40:03.479Z,1.10
2022-12-03T05:42:48.559Z,1.11
2022-12-03T05:45:15.303Z,1.12
2022-12-03T05:47:41.822Z,1.12
2022-12-03T05:50:08.522Z,1.12
2022-12-03T05:52:35.071Z,1.10
2022-12-03T05:55:01.862Z,1.10
2022-12-03T05:57:28.697Z,1.12
2022-12-03T05:59:55.226Z,1.13
2022-12-03T06:02:22.000Z,1.11
2022-12-03T06:04:48.609Z,1.07
2022-12-03T06:07:15.125Z,1.05
2022-12-03T06:09:41.668Z,1.05
2022-12-03T06:12:11.716Z,1.08
2022-12-03T06:14:38.249Z,1.14
2022-12-03T06:17:05.064Z,1.15
2022-12-03T06:19:31.561Z,1.16
2022-12-03T06:21:58.133Z,1.19
2022-12-03T06:24:24.716Z,1.18
2022-12-03T06:26:51.244Z,1.17
2022-12-03T06:29:17.882Z,1.13
2022-12-03T06:31:44.484Z,1.10
2022-12-03T06:34:11.103Z,1.07
2022-12-03T06:36:37.645Z,1.05
2022-12-03T06:39:04.145Z,1.07
2022-12-03T06:41:31.234Z,1.05
2022-12-03T06:43:57.813Z,1.04
2022-12-03T06:46:24.446Z,0.99
2022-12-03T06:48:51.118Z,0.94
2022-12-03T06:51:17.724Z,0.92
2022-12-03T06:53:44.203Z,0.94
2022-12-03T06:56:10.854Z,0.95
2022-12-03T06:58:37.384Z,0.93
2022-12-03T07:01:03.909Z,0.92
2022-12-03T07:03:30.583Z,0.94
2022-12-03T07:05:57.115Z,0.96
2022-12-03T07:08:23.677Z,0.98
2022-12-03T07:10:50.456Z,0.99
2022-12-03T07:13:17.270Z,1.02
2022-12-03T07:15:43.886Z,1.03
2022-12-03T07:18:10.425Z,0.95
2022-12-03T07:20:37.427Z,0.87
2022-12-03T07:23:03.981Z,0.87
2022-12-03T07:25:30.571Z,0.91
2022-12-03T07:27:57.167Z,0.96
2022-12-03T07:30:25.532Z,0.96
2022-12-03T07:32:52.180Z,0.96
2022-12-03T07:35:18.820Z,0.91
2022-12-03T07:37:45.602Z,0.87
2022-12-03T07:40:12.566Z,0.84
2022-12-03T07:42:39.491Z,0.82
2022-12-03T07:45:06.612Z,0.78
2022-12-03T07:47:33.114Z,0.78
2022-12-03T07:49:59.592Z,0.80
2022-12-03T07:52:26.087Z,0.84
2022-12-03T07:54:52.839Z,0.85
2022-12-03T07:57:19.696Z,0.88
2022-12-03T07:59:46.302Z,0.89
2022-12-03T08:02:16.857Z,0.93
2022-12-03T08:04:47.445Z,0.93
2022-12-03T08:07:13.972Z,0.93
2022-12-03T08:09:41.011Z,0.94
2022-12-03T08:12:18.082Z,0.95
2022-12-03T08:14:44.609Z,0.95
2022-12-03T08:17:12.904Z,0.94
2022-12-03T08:19:44.651Z,0.92
2022-12-03T08:22:14.032Z,0.94
2022-12-03T08:24:40.954Z,0.97
2022-12-03T08:27:18.987Z,1.00
2022-12-03T08:29:46.446Z,1.01
2022-12-03T08:32:13.828Z,1.04
2022-12-03T08:34:43.747Z,1.08
2022-12-03T08:37:19.626Z,1.15
2022-12-03T08:39:48.806Z,1.20
2022-12-03T08:42:44.540Z,1.23
2022-12-03T08:45:40.299Z,1.25
2022-12-03T08:48:18.519Z,1.27
2022-12-03T08:50:45.210Z,1.25
2022-12-03T08:53:31.133Z,1.21
2022-12-03T08:56:30.820Z,1.18
2022-12-03T08:59:24.038Z,1.18
2022-12-03T09:01:51.699Z,1.17
2022-12-03T09:04:38.803Z,1.20
2022-12-03T09:07:05.409Z,1.18
2022-12-03T09:09:31.984Z,1.17
2022-12-03T09:11:58.558Z,1.18
2022-12-03T09:14:25.135Z,1.18
2022-12-03T09:16:55.570Z,1.18
2022-12-03T09:19:27.345Z,1.22
2022-12-03T09:21:54.615Z,1.24
2022-12-03T09:24:21.467Z,1.26
2022-12-03T09:26:48.047Z,1.28
2022-12-03T09:29:14.742Z,1.28
2022-12-03T09:31:41.514Z,1.31
2022-12-03T09:34:08.812Z,1.34
2022-12-03T09:36:36.477Z,1.33
2022-12-03T09:39:04.749Z,1.37
2022-12-03T09:41:31.330Z,1.42
2022-12-03T09:44:05.857Z,1.45
2022-12-03T09:46:36.200Z,1.48
2022-12-03T09:49:04.957Z,1.49
2022-12-03T09:51:34.431Z,1.53
2022-12-03T09:54:03.588Z,1.59
2022-12-03T09:56:30.531Z,1.64
2022-12-03T09:58:57.059Z,1.72
2022-12-03T10:01:27.903Z,1.78
2022-12-03T10:03:56.546Z,1.83
2022-12-03T10:06:23.651Z,1.89
2022-12-03T10:08:53.525Z,1.97
2022-12-03T10:11:23.194Z,2.01
2022-12-03T10:13:52.361Z,2.03
2022-12-03T10:16:21.080Z,2.07
2022-12-03T10:18:56.552Z,2.11
2022-12-03T10:21:30.629Z,2.14
2022-12-03T10:24:21.994Z,2.23
2022-12-03T10:26:50.974Z,2.25
2022-12-03T10:29:29.672Z,2.28
2022-12-03T10:32:08.041Z,2.31
2022-12-03T10:34:40.398Z,2.28
2022-12-03T10:37:22.466Z,2.24
2022-12-03T10:40:09.063Z,2.31
2022-12-03T10:42:38.859Z,2.31
2022-12-03T10:45:23.067Z,2.32
2022-12-03T10:48:19.139Z,2.26
2022-12-03T10:50:54.528Z,2.25
2022-12-03T10:53:23.958Z,2.21
2022-12-03T10:55:51.902Z,2.16
2022-12-03T10:58:22.487Z,2.11
2022-12-03T11:00:51.227Z,2.11
2022-12-03T11:03:26.661Z,2.14
2022-12-03T11:05:55.427Z,2.17
2022-12-03T11:08:34.726Z,2.17
2022-12-03T11:11:04.805Z,2.17
2022-12-03T11:13:34.050Z,2.17
2022-12-03T11:16:05.263Z,2.19
2022-12-03T11:18:34.775Z,2.22
2022-12-03T11:21:04.395Z,2.24
2022-12-03T11:23:49.388Z,2.27
2022-12-03T11:26:19.497Z,2.26
2022-12-03T11:28:46.310Z,2.21
2022-12-03T11:31:46.596Z,2.19
2022-12-03T11:34:19.724Z,2.20
2022-12-03T11:37:11.837Z,2.21
2022-12-03T11:39:50.684Z,2.20
2022-12-03T11:42:26.316Z,2.18
2022-12-03T11:45:14.446Z,2.18
2022-12-03T11:47:59.313Z,2.21
2022-12-03T11:50:50.286Z,2.21
2022-12-03T11:53:26.818Z,2.23
2022-12-03T11:56:08.459Z,2.23
2022-12-03T11:58:38.209Z,2.21
2022-12-03T12:01:07.159Z,2.21
2022-12-03T12:03:36.905Z,2.19
2022-12-03T12:06:21.367Z,2.16
2022-12-03T12:08:50.827Z,2.13
2022-12-03T12:11:29.485Z,2.12
2022-12-03T12:14:01.414Z,2.15
2022-12-03T12:16:45.943Z,2.15
2022-12-03T12:19:28.584Z,2.19
2022-12-03T12:21:56.152Z,2.23
2022-12-03T12:24:40.556Z,2.25
2022-12-03T12:27:14.770Z,2.26
2022-12-03T12:29:43.359Z,2.24
2022-12-03T12:32:10.627Z,2.24
2022-12-03T12:34:38.982Z,2.23
2022-12-03T12:37:10.876Z,2.25
2022-12-03T12:39:38.748Z,2.26
2022-12-03T12:42:27.401Z,2.29
2022-12-03T12:44:54.967Z,2.30
2022-12-03T12:47:21.547Z,2.31
2022-12-03T12:49:51.936Z,2.31
2022-12-03T12:52:18.884Z,2.33
2022-12-03T12:54:45.551Z,2.37
2022-12-03T12:57:21.583Z,2.39
2022-12-03T12:59:48.493Z,2.42
2022-12-03T13:02:30.260Z,2.41
2022-12-03T13:04:57.461Z,2.39
2022-12-03T13:07:25.715Z,2.34
2022-12-03T13:09:55.827Z,2.32
2022-12-03T13:12:24.191Z,2.33
2022-12-03T13:14:52.138Z,2.34
2022-12-03T13:17:24.323Z,2.37
2022-12-03T13:20:00.464Z,2.39
2022-12-03T13:22:32.027Z,2.43
2022-12-03T13:25:37.974Z,2.44
2022-12-03T13:28:08.012Z,2.41
2022-12-03T13:30:34.515Z,2.41
2022-12-03T13:33:08.242Z,2.39
2022-12-03T13:35:36.160Z,2.40
2022-12-03T13:38:10.082Z,2.40
2022-12-03T13:40:37.437Z,2.40
2022-12-03T13:43:05.010Z,2.43
2022-12-03T13:45:38.567Z,2.40
2022-12-03T13:48:29.021Z,2.41
2022-12-03T13:50:56.420Z,2.43
2022-12-03T13:53:25.728Z,2.45
2022-12-03T13:56:14.587Z,2.45
2022-12-03T13:58:41.142Z,2.43
2022-12-03T14:01:07.967Z,2.43
2022-12-03T14:03:34.896Z,2.42
2022-12-03T14:06:01.500Z,2.39
2022-12-03T14:08:28.024Z,2.36
2022-12-03T14:11:00.136Z,2.36
2022-12-03T14:13:27.182Z,2.35
2022-12-03T14:15:53.841Z,2.34
2022-12-03T14:18:20.380Z,2.30
2022-12-03T14:20:47.047Z,2.28
2022-12-03T14:23:14.931Z,2.25
2022-12-03T14:25:43.798Z,2.24
2022-12-03T14:28:10.606Z,2.25
2022-12-03T14:30:37.268Z,2.23
2022-12-03T14:33:04.737Z,2.20
2022-12-03T14:35:31.233Z,2.16
2022-12-03T14:37:57.748Z,2.13
2022-12-03T14:40:24.338Z,2.12
2022-12-03T14:42:50.945Z,2.13
2022-12-03T14:45:17.601Z,2.11
2022-12-03T14:47:44.159Z,2.10
2022-12-03T14:50:14.200Z,2.11
2022-12-03T14:52:41.097Z,2.09
2022-12-03T14:55:07.964Z,2.07
2022-12-03T14:57:36.735Z,2.06
2022-12-03T15:00:05.456Z,2.06
2022-12-03T15:02:32.464Z,2.09
2022-12-03T15:04:59.160Z,2.08
2022-12-03T15:07:26.633Z,2.04
2022-12-03T15:09:53.511Z,2.03
2022-12-03T15:12:20.367Z,2.04
2022-12-03T15:14:47.569Z,2.05
2022-12-03T15:17:14.321Z,2.04
2022-12-03T15:19:41.118Z,2.05
2022-12-03T15:22:07.898Z,2.03
2022-12-03T15:24:34.463Z,2.03
2022-12-03T15:27:01.053Z,2.01
2022-12-03T15:29:27.637Z,2.01
2022-12-03T15:31:54.281Z,2.01
2022-12-03T15:34:23.007Z,2.02
2022-12-03T15:36:49.839Z,2.01
2022-12-03T15:39:16.362Z,2.01
2022-12-03T15:41:42.893Z,2.00
2022-12-03T15:44:09.508Z,1.99
2022-12-03T15:46:36.207Z,1.99
2022-12-03T15:49:02.832Z,1.99
2022-12-03T15:51:29.362Z,2.04
2022-12-03T15:53:56.029Z,2.06
2022-12-03T15:56:22.593Z,2.09
2022-12-03T15:58:49.079Z,2.07
2022-12-03T16:01:18.045Z,2.05
2022-12-03T16:03:45.653Z,2.05
2022-12-03T16:06:12.688Z,2.03
2022-12-03T16:08:39.245Z,1.99
2022-12-03T16:11:06.039Z,1.99
2022-12-03T16:13:32.628Z,1.98
2022-12-03T16:15:59.664Z,1.97
2022-12-03T16:18:26.329Z,1.97
2022-12-03T16:20:52.956Z,1.96
2022-12-03T16:23:22.553Z,1.93
2022-12-03T16:25:49.053Z,1.91
2022-12-03T16:28:15.769Z,1.93
2022-12-03T16:30:42.383Z,1.92
2022-12-03T16:33:09.193Z,1.90
2022-12-03T16:35:37.120Z,1.90
2022-12-03T16:38:03.750Z,1.92
2022-12-03T16:40:30.288Z,1.94
2022-12-03T16:42:56.866Z,1.95
2022-12-03T16:45:29.197Z,1.96
2022-12-03T16:47:55.786Z,1.96
2022-12-03T16:50:29.386Z,1.95
2022-12-03T16:52:57.997Z,1.94
2022-12-03T16:55:24.816Z,1.95
2022-12-03T16:57:51.501Z,1.96
2022-12-03T17:00:18.406Z,1.95
2022-12-03T17:02:45.119Z,1.97
2022-12-03T17:05:11.714Z,1.99
2022-12-03T17:07:38.304Z,2.02
2022-12-03T17:10:06.040Z,2.02
2022-12-03T17:12:54.143Z,2.02
2022-12-03T17:15:19.263Z,2.05
2022-12-03T17:17:46.219Z,2.07
2022-12-03T17:20:14.838Z,2.07
2022-12-03T17:22:42.088Z,2.09
2022-12-03T17:25:09.467Z,2.07
2022-12-03T17:27:40.806Z,2.08
2022-12-03T17:30:12.657Z,2.10
2022-12-03T17:32:39.401Z,2.13
2022-12-03T17:35:06.761Z,2.17
2022-12-03T17:37:33.860Z,2.23
2022-12-03T17:40:00.541Z,2.26
2022-12-03T17:42:27.169Z,2.27
2022-12-03T17:44:53.737Z,2.29
2022-12-03T17:47:24.477Z,2.29
2022-12-03T17:49:51.129Z,2.29
2022-12-03T17:52:17.757Z,2.30
2022-12-03T17:55:09.179Z,2.31
2022-12-03T17:57:30.905Z,2.33
2022-12-03T17:59:57.614Z,2.32
2022-12-03T18:02:24.502Z,2.32
2022-12-03T18:04:51.117Z,2.33
2022-12-03T18:07:17.758Z,2.30
2022-12-03T18:09:44.357Z,2.31
2022-12-03T18:12:11.074Z,2.30
2022-12-03T18:14:37.851Z,2.27
2022-12-03T18:17:04.384Z,2.27
2022-12-03T18:19:31.086Z,2.28
2022-12-03T18:21:57.687Z,2.28
2022-12-03T18:24:25.169Z,2.27
2022-12-03T18:26:51.784Z,2.25
2022-12-03T18:29:18.298Z,2.23
2022-12-03T18:31:45.011Z,2.24
2022-12-03T18:34:11.572Z,2.21
2022-12-03T18:36:38.138Z,2.17
2022-12-03T18:39:08.468Z,2.14
2022-12-03T18:41:35.796Z,2.13
2022-12-03T18:44:09.488Z,2.10
2022-12-03T18:49:23.166Z,2.07
2022-12-03T18:51:53.320Z,2.06
2022-12-03T18:54:22.543Z,2.05
2022-12-03T18:56:49.165Z,2.05
2022-12-03T18:59:16.154Z,2.03
2022-12-03T19:01:42.683Z,2.05
2022-12-03T19:04:10.454Z,2.05
2022-12-03T19:06:37.556Z,2.05
2022-12-03T19:09:04.720Z,2.08
2022-12-03T19:11:31.335Z,2.10
2022-12-03T19:13:59.033Z,2.13
2022-12-03T19:16:26.034Z,2.16
2022-12-03T19:18:53.977Z,2.16
2022-12-03T19:21:20.804Z,2.17
2022-12-03T19:26:37.407Z,2.16
2022-12-03T19:29:04.250Z,2.11
2022-12-03T19:31:33.351Z,2.09
2022-12-03T19:34:00.213Z,2.06
2022-12-03T19:36:29.536Z,2.03
2022-12-03T19:38:58.495Z,2.01
2022-12-03T19:41:28.105Z,2.00
2022-12-03T19:43:56.076Z,2.00
2022-12-03T19:46:24.530Z,2.00
2022-12-03T19:48:51.407Z,1.95
2022-12-03T19:51:34.035Z,1.92
2022-12-03T19:54:02.332Z,1.90
2022-12-03T19:56:30.368Z,1.90
2022-12-03T19:59:00.171Z,1.89
2022-12-03T20:01:31.713Z,1.87
2022-12-03T20:04:02.740Z,1.88
2022-12-03T20:06:32.142Z,1.84
2022-12-03T20:09:07.046Z,1.83
2022-12-03T20:11:35.348Z,1.82
2022-12-03T20:14:06.295Z,1.83
2022-12-03T20:16:33.607Z,1.83
2022-12-03T20:19:02.897Z,1.78
2022-12-03T20:21:37.783Z,1.73
2022-12-03T20:24:05.954Z,1.70
2022-12-03T20:26:32.878Z,1.66
2022-12-03T20:29:00.282Z,1.65
2022-12-03T20:31:29.974Z,1.66
2022-12-03T20:34:00.292Z,1.64
2022-12-03T20:36:28.475Z,1.66
2022-12-03T20:38:56.730Z,1.67
2022-12-03T20:41:23.450Z,1.67
2022-12-03T20:43:51.088Z,1.67
2022-12-03T20:46:20.821Z,1.65
2022-12-03T20:48:47.901Z,1.66
2022-12-03T20:51:19.973Z,1.63
2022-12-03T20:53:46.994Z,1.63
2022-12-03T20:56:20.258Z,1.57
2022-12-03T20:58:48.762Z,1.58
2022-12-03T21:01:17.051Z,1.60
2022-12-03T21:03:44.536Z,1.62
2022-12-03T21:06:12.111Z,1.63
2022-12-03T21:08:41.992Z,1.62
2022-12-03T21:11:14.880Z,1.59
2022-12-03T21:13:43.442Z,1.59
2022-12-03T21:16:15.700Z,1.58
2022-12-03T21:18:42.389Z,1.58
2022-12-03T21:21:11.669Z,1.58
2022-12-03T21:23:38.359Z,1.58
2022-12-03T21:26:17.660Z,1.60
2022-12-03T21:28:50.399Z,1.62
2022-12-03T21:31:19.822Z,1.59
2022-12-03T21:33:47.017Z,1.56
2022-12-03T21:36:15.962Z,1.53
2022-12-03T21:38:44.117Z,1.53
2022-12-03T21:41:12.840Z,1.51
2022-12-03T21:43:39.387Z,1.49
2022-12-03T21:47:09.748Z,1.49
2022-12-03T21:48:57.254Z,1.51
2022-12-03T21:51:23.877Z,1.50
2022-12-03T21:53:50.833Z,1.51
2022-12-03T21:56:19.249Z,1.55
2022-12-03T21:58:46.313Z,1.56
2022-12-03T22:01:16.768Z,1.58
2022-12-03T22:03:44.048Z,1.60
2022-12-03T22:06:11.306Z,1.64
2022-12-03T22:08:38.443Z,1.67
2022-12-03T22:11:07.007Z,1.67
2022-12-03T22:13:33.585Z,1.65
2022-12-03T22:16:03.481Z,1.66
2022-12-03T22:18:30.186Z,1.66
2022-12-03T22:20:56.715Z,1.66
2022-12-03T22:23:23.232Z,1.69
2022-12-03T22:25:58.121Z,1.69
2022-12-03T22:28:24.717Z,1.69
2022-12-03T22:30:51.217Z,1.65
2022-12-03T22:33:17.798Z,1.64
2022-12-03T22:35:44.459Z,1.65
2022-12-03T22:38:12.008Z,1.65
2022-12-03T22:40:39.506Z,1.66
2022-12-03T22:43:05.985Z,1.66
2022-12-03T22:45:35.095Z,1.66
2022-12-03T22:48:02.716Z,1.66
2022-12-03T22:50:29.293Z,1.66
2022-12-03T22:52:55.834Z,1.66
2022-12-03T22:55:22.361Z,1.68
2022-12-03T22:57:48.994Z,1.66
2022-12-03T23:00:28.110Z,1.65
2022-12-03T23:02:54.665Z,1.65
2022-12-03T23:05:21.195Z,1.63
2022-12-03T23:07:47.751Z,1.60
2022-12-03T23:10:14.425Z,1.57
2022-12-03T23:12:40.981Z,1.54
2022-12-03T23:15:08.513Z,1.53
2022-12-03T23:17:36.297Z,1.51
2022-12-03T23:20:03.991Z,1.49
2022-12-03T23:22:30.515Z,1.53
2022-12-03T23:24:57.149Z,1.52
2022-12-03T23:27:23.625Z,1.49
2022-12-03T23:29:50.123Z,1.47
2022-12-03T23:32:16.674Z,1.46
2022-12-03T23:34:43.248Z,1.48
2022-12-03T23:37:09.892Z,1.47
2022-12-03T23:39:36.374Z,1.44
2022-12-03T23:42:03.771Z,1.41
2022-12-03T23:44:30.305Z,1.39
2022-12-03T23:46:57.253Z,1.36
2022-12-03T23:49:23.945Z,1.36
2022-12-03T23:51:50.731Z,1.33
2022-12-03T23:54:17.299Z,1.31
2022-12-03T23:56:43.926Z,1.27
2022-12-03T23:59:10.457Z,1.25
